Time;durP1;ratioP1;P1;durP2;ratioP2;P2;SDS_P1;SDS_P2;PMS_P1;PMS_P2;Temp;Humidity;BMP_temperature;BMP_pressure;BME280_temperature;BME280_humidity;BME280_pressure;Samples;Min_cycle;Max_cycle;Signal;HPM_P1;HPM_P2
2021/01/09 00:01:39;;;;;;;93.93;37.20;;;0.50;99.90;;;;;;5290345;28;20194;-73
2021/01/09 00:04:13;;;;;;;107.67;39.50;;;0.50;99.90;;;;;;5272019;28;20202;-73
2021/01/09 00:06:45;;;;;;;92.97;39.03;;;0.50;99.90;;;;;;5289829;28;20183;-72
2021/01/09 00:09:16;;;;;;;102.13;40.63;;;0.50;99.90;;;;;;5290229;28;20582;-73
2021/01/09 00:11:48;;;;;;;105.83;41.20;;;0.50;99.90;;;;;;5289906;28;20195;-72
2021/01/09 00:14:21;;;;;;;106.33;39.50;;;0.50;99.90;;;;;;5290225;28;20602;-71
2021/01/09 00:16:53;;;;;;;99.07;39.37;;;0.50;99.90;;;;;;5289709;28;20558;-72
2021/01/09 00:19:24;;;;;;;110.27;40.37;;;0.50;99.90;;;;;;5289666;28;20219;-72
2021/01/09 00:21:57;;;;;;;99.90;38.43;;;0.50;99.90;;;;;;5272012;28;20557;-72
2021/01/09 00:24:29;;;;;;;104.27;39.83;;;0.50;99.90;;;;;;5289663;28;20645;-73
2021/01/09 00:27:00;;;;;;;99.67;38.33;;;0.50;99.90;;;;;;5289624;28;20187;-73
2021/01/09 00:29:35;;;;;;;101.17;39.40;;;0.50;99.90;;;;;;5290214;28;20575;-73
2021/01/09 00:32:07;;;;;;;101.17;37.00;;;0.40;99.90;;;;;;5289668;28;20187;-71
2021/01/09 00:34:38;;;;;;;91.73;38.47;;;0.40;99.90;;;;;;5289944;28;20187;-73
2021/01/09 00:37:10;;;;;;;97.33;37.53;;;0.40;99.90;;;;;;5290121;28;20558;-75
2021/01/09 00:39:45;;;;;;;92.37;36.47;;;0.40;99.90;;;;;;5289866;28;20207;-74
2021/01/09 00:42:16;;;;;;;93.60;34.37;;;0.40;99.90;;;;;;5291438;28;20187;-73
2021/01/09 00:44:48;;;;;;;85.43;33.67;;;0.40;99.90;;;;;;5293800;28;20204;-74
2021/01/09 00:47:19;;;;;;;88.53;34.50;;;0.40;99.90;;;;;;5293672;28;20278;-72
2021/01/09 00:49:51;;;;;;;90.33;34.47;;;0.30;99.90;;;;;;5293245;28;20239;-72
2021/01/09 00:52:22;;;;;;;86.30;32.37;;;0.30;99.90;;;;;;5293743;28;20204;-72
2021/01/09 00:54:54;;;;;;;72.07;29.63;;;0.30;99.90;;;;;;5293249;28;20191;-72
2021/01/09 00:57:25;;;;;;;69.43;29.53;;;0.30;99.90;;;;;;5293721;28;20648;-71
2021/01/09 00:59:57;;;;;;;72.03;29.43;;;0.30;99.90;;;;;;5293548;28;20307;-73
2021/01/09 01:02:28;;;;;;;71.20;30.90;;;0.30;99.90;;;;;;5293575;28;20196;-73
2021/01/09 01:05:00;;;;;;;64.40;27.57;;;0.30;99.90;;;;;;5293217;28;20192;-74
2021/01/09 01:07:34;;;;;;;65.90;26.37;;;0.30;99.90;;;;;;5293303;28;20187;-72
2021/01/09 01:10:07;;;;;;;60.00;26.50;;;0.30;99.90;;;;;;5293119;28;20563;-74
2021/01/09 01:12:38;;;;;;;58.37;24.90;;;0.30;99.90;;;;;;5293403;28;20187;-73
2021/01/09 01:15:11;;;;;;;64.30;26.30;;;0.20;99.90;;;;;;5292833;28;20245;-74
2021/01/09 01:17:47;;;;;;;61.47;24.63;;;0.20;99.90;;;;;;5292653;28;20188;-74
2021/01/09 01:20:19;;;;;;;65.03;25.60;;;0.20;99.90;;;;;;5292783;28;20661;-72
2021/01/09 01:22:50;;;;;;;56.23;23.77;;;0.20;99.90;;;;;;5292999;28;20550;-73
2021/01/09 01:25:22;;;;;;;66.63;25.27;;;0.20;99.90;;;;;;5292728;28;20198;-72
2021/01/09 01:27:53;;;;;;;64.60;26.33;;;0.20;99.90;;;;;;5292740;28;20184;-75
2021/01/09 01:30:25;;;;;;;66.73;26.10;;;0.20;99.90;;;;;;5292961;28;20544;-71
2021/01/09 01:32:56;;;;;;;60.13;24.07;;;0.10;99.90;;;;;;5292954;28;20518;-70
2021/01/09 01:35:28;;;;;;;60.73;25.03;;;0.10;99.90;;;;;;5292654;28;20617;-71
2021/01/09 01:38:00;;;;;;;67.03;24.90;;;0.10;99.90;;;;;;5274520;28;20256;-74
2021/01/09 01:40:31;;;;;;;61.23;25.53;;;0.10;99.90;;;;;;5292371;28;20195;-72
2021/01/09 01:43:14;;;;;;;59.20;22.83;;;0.00;99.90;;;;;;5292429;28;20184;-72
2021/01/09 01:45:45;;;;;;;60.23;23.77;;;0.00;99.90;;;;;;5292295;28;20293;-73
2021/01/09 01:48:17;;;;;;;63.47;23.83;;;-0.10;99.90;;;;;;5292368;28;20191;-71
2021/01/09 01:50:50;;;;;;;63.17;24.13;;;-0.10;99.90;;;;;;5292112;28;20256;-72
2021/01/09 01:53:21;;;;;;;57.47;23.43;;;-0.10;99.90;;;;;;5274393;28;20191;-73
2021/01/09 01:55:53;;;;;;;62.27;25.43;;;-0.20;99.90;;;;;;5292032;28;20270;-70
2021/01/09 01:58:25;;;;;;;64.87;23.90;;;-0.20;99.90;;;;;;5292371;28;20573;-71
2021/01/09 02:00:56;;;;;;;58.93;23.13;;;-0.20;99.90;;;;;;5273974;28;20199;-71
2021/01/09 02:03:28;;;;;;;59.53;21.50;;;-0.20;99.90;;;;;;5291882;28;20192;-72
2021/01/09 02:06:12;;;;;;;56.67;21.50;;;-0.20;99.90;;;;;;5292190;28;20196;-72
2021/01/09 02:09:04;;;;;;;51.10;20.63;;;-0.30;99.90;;;;;;5292114;28;20537;-72
2021/01/09 02:11:50;;;;;;;48.83;20.27;;;-0.30;99.90;;;;;;5291690;28;20574;-72
2021/01/09 02:14:44;;;;;;;46.57;18.87;;;-0.40;99.90;;;;;;5291971;28;20199;-71
2021/01/09 02:21:05;;;;;;;43.83;18.27;;;-0.50;99.90;;;;;;5291716;28;20203;-72
2021/01/09 02:23:36;;;;;;;46.33;18.63;;;-0.50;99.90;;;;;;5291404;28;20201;-73
2021/01/09 02:26:09;;;;;;;48.87;18.90;;;-0.60;99.90;;;;;;5291720;28;20555;-73
2021/01/09 02:28:41;;;;;;;45.33;17.80;;;-0.60;99.90;;;;;;5273573;28;20183;-71
2021/01/09 02:31:21;;;;;;;49.40;19.33;;;-0.60;99.90;;;;;;5291412;28;20203;-72
2021/01/09 02:37:38;;;;;;;46.80;19.07;;;-0.70;99.90;;;;;;5291344;28;20225;-72
2021/01/09 02:40:16;;;;;;;47.53;18.93;;;-0.80;99.90;;;;;;5273177;28;20219;-71
2021/01/09 02:42:47;;;;;;;45.97;18.77;;;-0.80;99.90;;;;;;5273205;28;20541;-72
2021/01/09 02:45:19;;;;;;;45.43;17.53;;;-0.80;99.90;;;;;;5291316;28;20190;-71
2021/01/09 02:47:50;;;;;;;53.73;18.83;;;-0.90;99.90;;;;;;5291130;28;20198;-72
2021/01/09 02:50:23;;;;;;;50.40;18.30;;;-0.90;99.90;;;;;;5290859;28;20260;-72
2021/01/09 02:52:55;;;;;;;50.87;18.67;;;-0.90;99.90;;;;;;5291160;28;20568;-71
2021/01/09 02:55:26;;;;;;;51.33;20.07;;;-0.90;99.90;;;;;;5290937;28;20202;-72
2021/01/09 02:57:57;;;;;;;52.30;20.20;;;-0.90;99.90;;;;;;5291234;28;20194;-73
2021/01/09 03:00:29;;;;;;;55.77;21.17;;;-1.00;99.90;;;;;;5291412;28;20222;-72
2021/01/09 03:03:00;;;;;;;57.87;20.47;;;-1.00;99.90;;;;;;5291025;28;20627;-72
2021/01/09 03:05:31;;;;;;;50.47;20.30;;;-1.00;99.90;;;;;;5290980;28;20560;-72
2021/01/09 03:08:03;;;;;;;51.10;19.97;;;-1.10;99.90;;;;;;5291411;28;20199;-73
2021/01/09 03:10:35;;;;;;;48.13;19.30;;;-1.10;99.90;;;;;;5291463;28;20190;-72
2021/01/09 03:13:06;;;;;;;48.97;19.20;;;-1.10;99.90;;;;;;5290992;28;20282;-71
2021/01/09 03:15:38;;;;;;;52.60;19.73;;;-1.10;99.90;;;;;;5290756;28;20198;-71
2021/01/09 03:18:09;;;;;;;50.30;20.27;;;-1.10;99.90;;;;;;5273538;28;20199;-72
2021/01/09 03:20:41;;;;;;;53.57;19.93;;;-1.10;99.90;;;;;;5291322;28;20549;-70
2021/01/09 03:23:12;;;;;;;60.73;20.73;;;-1.00;99.90;;;;;;5291223;28;20201;-72
2021/01/09 03:25:43;;;;;;;60.07;19.67;;;-0.90;99.90;;;;;;5291898;28;20189;-71
2021/01/09 03:28:15;;;;;;;65.20;20.80;;;-0.80;99.90;;;;;;5273350;28;20223;-73
2021/01/09 03:30:46;;;;;;;64.40;21.77;;;-0.70;99.90;;;;;;5291909;28;20195;-73
2021/01/09 03:33:18;;;;;;;63.53;20.60;;;-0.70;99.90;;;;;;5291743;28;20636;-72
2021/01/09 03:35:49;;;;;;;53.40;19.83;;;-0.70;99.90;;;;;;5292743;28;20209;-74
2021/01/09 03:38:21;;;;;;;51.60;17.90;;;-0.60;99.90;;;;;;5291861;28;20198;-72
2021/01/09 03:40:52;;;;;;;64.90;19.43;;;-0.60;99.90;;;;;;5291073;28;20575;-71
2021/01/09 03:43:24;;;;;;;62.43;18.57;;;-0.50;99.90;;;;;;5291011;28;20558;-71
2021/01/09 03:45:55;;;;;;;52.27;17.03;;;-0.50;99.90;;;;;;5290691;28;20194;-71
2021/01/09 03:48:27;;;;;;;57.07;19.23;;;-0.50;99.90;;;;;;5290713;28;20274;-73
2021/01/09 03:50:58;;;;;;;63.97;20.13;;;-0.50;99.90;;;;;;5272343;28;20245;-76
2021/01/09 03:53:30;;;;;;;65.43;20.63;;;-0.40;99.90;;;;;;5290601;28;20195;-73
2021/01/09 03:56:02;;;;;;;55.40;18.27;;;-0.40;99.90;;;;;;5290528;28;20199;-72
2021/01/09 03:58:34;;;;;;;56.93;18.10;;;-0.40;99.90;;;;;;5290362;28;20210;-73
2021/01/09 04:01:06;;;;;;;60.80;18.50;;;-0.40;99.90;;;;;;5290084;28;20192;-72
2021/01/09 04:03:38;;;;;;;58.10;18.67;;;-0.40;99.90;;;;;;5290073;28;20202;-72
2021/01/09 04:06:09;;;;;;;49.43;17.30;;;-0.30;99.90;;;;;;5290661;28;20245;-72
2021/01/09 04:08:41;;;;;;;44.87;15.00;;;-0.40;99.90;;;;;;5290198;28;20198;-71
2021/01/09 04:11:12;;;;;;;39.27;14.90;;;-0.40;99.90;;;;;;5290465;28;20642;-72
2021/01/09 04:13:44;;;;;;;43.07;15.07;;;-0.40;99.90;;;;;;5290334;28;20192;-70
2021/01/09 04:16:15;;;;;;;43.43;15.03;;;-0.40;99.90;;;;;;5290716;28;20188;-72
2021/01/09 04:18:47;;;;;;;43.20;15.07;;;-0.40;99.90;;;;;;5294688;28;20618;-72
2021/01/09 04:21:19;;;;;;;42.47;14.67;;;-0.40;99.90;;;;;;5294790;28;20192;-70
2021/01/09 04:23:50;;;;;;;38.50;14.00;;;-0.40;99.90;;;;;;5294895;28;20199;-71
2021/01/09 04:26:21;;;;;;;40.63;15.13;;;-0.40;99.90;;;;;;5294458;28;20561;-72
2021/01/09 04:28:53;;;;;;;39.97;15.13;;;-0.40;99.90;;;;;;5294262;28;20192;-74
2021/01/09 04:31:24;;;;;;;41.60;15.20;;;-0.40;99.90;;;;;;5294546;28;20195;-72
2021/01/09 04:33:56;;;;;;;38.90;13.80;;;-0.40;99.90;;;;;;5294037;28;20200;-73
2021/01/09 04:36:27;;;;;;;40.47;14.20;;;-0.40;99.90;;;;;;5293987;28;20191;-72
2021/01/09 04:38:59;;;;;;;40.80;15.00;;;-0.40;99.90;;;;;;5294091;28;20662;-71
2021/01/09 04:41:34;;;;;;;40.73;14.07;;;-0.40;99.90;;;;;;5294226;28;20184;-73
2021/01/09 04:44:07;;;;;;;43.77;15.07;;;-0.40;99.90;;;;;;5294299;28;20191;-73
2021/01/09 04:46:48;;;;;;;50.90;14.70;;;-0.40;99.90;;;;;;5293978;28;20293;-74
2021/01/09 04:49:25;;;;;;;39.53;13.43;;;-0.50;99.90;;;;;;5294166;28;20195;-72
2021/01/09 04:51:57;;;;;;;41.33;14.63;;;-0.50;99.90;;;;;;5291665;28;20189;-71
2021/01/09 04:54:30;;;;;;;30.63;12.83;;;-0.50;99.90;;;;;;5293838;28;20587;-73
2021/01/09 04:57:01;;;;;;;39.37;14.03;;;-0.50;99.90;;;;;;5293900;28;20548;-71
2021/01/09 04:59:35;;;;;;;43.63;15.97;;;-0.50;99.90;;;;;;5293983;28;20251;-74
2021/01/09 05:02:08;;;;;;;41.83;16.33;;;-0.50;99.90;;;;;;5276449;28;20652;-72
2021/01/09 05:04:45;;;;;;;43.23;15.70;;;-0.40;99.90;;;;;;5293832;28;20250;-72
2021/01/09 05:07:16;;;;;;;48.80;17.50;;;-0.40;99.90;;;;;;5294027;28;20197;-71
2021/01/09 05:09:48;;;;;;;50.37;17.77;;;-0.40;99.90;;;;;;5293971;28;20574;-71
2021/01/09 05:12:20;;;;;;;49.77;16.50;;;-0.30;99.90;;;;;;5293255;28;20634;-71
2021/01/09 05:14:53;;;;;;;46.33;17.30;;;-0.30;99.90;;;;;;5293277;28;20213;-71
2021/01/09 05:17:25;;;;;;;46.37;16.90;;;-0.30;99.90;;;;;;5293408;28;20188;-74
2021/01/09 05:20:44;;;;;;;41.43;15.73;;;-0.30;99.90;;;;;;5270133;28;20277;-72
2021/01/09 05:23:16;;;;;;;44.47;15.60;;;-0.30;99.90;;;;;;5269704;28;20199;-74
2021/01/09 05:25:48;;;;;;;45.30;15.43;;;-0.30;99.90;;;;;;5271405;28;20201;-72
2021/01/09 05:28:19;;;;;;;42.47;15.80;;;-0.20;99.90;;;;;;5274002;28;20196;-72
2021/01/09 05:30:52;;;;;;;47.03;16.40;;;-0.20;99.90;;;;;;5274213;28;20208;-73
2021/01/09 05:37:24;;;;;;;43.87;14.57;;;-0.20;99.90;;;;;;5272579;28;20178;-72
2021/01/09 05:39:57;;;;;;;39.03;13.97;;;-0.10;99.90;;;;;;5271270;28;20227;-75
2021/01/09 05:42:29;;;;;;;45.50;16.33;;;-0.10;99.90;;;;;;5269692;28;20195;-71
2021/01/09 05:45:02;;;;;;;40.27;15.60;;;-0.10;99.90;;;;;;5269252;28;20208;-72
2021/01/09 05:47:37;;;;;;;35.37;14.30;;;-0.10;99.90;;;;;;5269135;28;20192;-72
2021/01/09 05:50:09;;;;;;;37.70;14.47;;;-0.10;99.90;;;;;;5253849;28;20599;-73
2021/01/09 05:52:41;;;;;;;35.20;14.93;;;-0.10;99.90;;;;;;5292709;28;20218;-71
2021/01/09 05:55:12;;;;;;;41.40;15.47;;;0.00;99.90;;;;;;5293660;28;20188;-74
2021/01/09 05:57:44;;;;;;;40.57;15.00;;;0.00;99.90;;;;;;5299257;28;20192;-71
2021/01/09 06:00:24;;;;;;;39.53;15.57;;;0.00;99.90;;;;;;5293248;28;20761;-72
2021/01/09 06:03:20;;;;;;;40.27;14.97;;;0.00;99.90;;;;;;5292675;28;20217;-72
2021/01/09 06:05:53;;;;;;;33.70;14.00;;;0.00;99.90;;;;;;5292721;28;20294;-71
2021/01/09 06:08:30;;;;;;;35.87;13.80;;;0.00;99.90;;;;;;5292211;28;20202;-71
2021/01/09 06:11:07;;;;;;;38.57;15.37;;;0.00;99.90;;;;;;5292464;28;20195;-75
2021/01/09 06:13:43;;;;;;;37.50;14.17;;;0.00;99.90;;;;;;5292620;28;20187;-72
2021/01/09 06:16:15;;;;;;;35.57;14.43;;;0.10;99.90;;;;;;5292527;28;20538;-71
2021/01/09 06:18:47;;;;;;;36.47;15.40;;;0.10;99.90;;;;;;5274295;28;20386;-70
2021/01/09 06:21:21;;;;;;;37.33;14.73;;;0.10;99.90;;;;;;5292394;28;20192;-71
2021/01/09 06:23:54;;;;;;;36.83;15.20;;;0.10;99.90;;;;;;5292420;28;20191;-70
2021/01/09 06:26:27;;;;;;;39.50;15.83;;;0.10;99.90;;;;;;5292446;28;20199;-70
2021/01/09 06:29:02;;;;;;;41.20;16.10;;;0.10;99.90;;;;;;5291684;28;20203;-71
2021/01/09 06:31:34;;;;;;;41.63;15.03;;;0.10;99.90;;;;;;5291669;28;20196;-71
2021/01/09 06:34:10;;;;;;;41.80;15.00;;;0.10;99.90;;;;;;5291654;28;20195;-70
2021/01/09 06:36:42;;;;;;;37.97;15.67;;;0.10;99.90;;;;;;5291765;28;20191;-73
2021/01/09 06:39:14;;;;;;;34.67;16.07;;;0.10;99.90;;;;;;5290894;28;20523;-71
2021/01/09 06:41:47;;;;;;;36.90;15.23;;;0.10;99.90;;;;;;5291400;28;20204;-71
2021/01/09 06:44:21;;;;;;;39.90;16.60;;;0.10;99.90;;;;;;5291871;28;20199;-72
2021/01/09 06:46:55;;;;;;;32.10;15.80;;;0.10;99.90;;;;;;5291235;28;20183;-71
2021/01/09 06:49:27;;;;;;;33.20;14.93;;;0.10;99.90;;;;;;5291346;28;20291;-71
2021/01/09 06:52:03;;;;;;;33.33;15.23;;;0.20;99.90;;;;;;5291167;28;20592;-72
2021/01/09 06:54:37;;;;;;;36.63;15.70;;;0.10;99.90;;;;;;5273452;28;20191;-72
2021/01/09 06:57:11;;;;;;;34.17;15.97;;;0.10;99.90;;;;;;5291421;28;20197;-73
2021/01/09 06:59:47;;;;;;;36.10;17.07;;;0.20;99.90;;;;;;5291173;28;20680;-72
2021/01/09 07:02:19;;;;;;;42.33;17.73;;;0.20;99.90;;;;;;5291074;28;20281;-72
2021/01/09 07:04:58;;;;;;;39.23;16.67;;;0.10;99.90;;;;;;5291281;28;20229;-73
2021/01/09 07:07:38;;;;;;;37.57;17.63;;;0.10;99.90;;;;;;5290811;28;20191;-73
2021/01/09 07:10:26;;;;;;;39.33;17.00;;;0.10;99.90;;;;;;5291373;28;20240;-75
2021/01/09 07:13:07;;;;;;;37.63;17.63;;;0.10;99.90;;;;;;5291050;28;20195;-72
2021/01/09 07:15:38;;;;;;;34.87;15.63;;;0.10;99.90;;;;;;5290791;28;20299;-71
2021/01/09 07:22:08;;;;;;;36.27;15.93;;;0.10;99.90;;;;;;5290959;28;20186;-73
2021/01/09 07:24:40;;;;;;;31.97;15.30;;;0.10;99.90;;;;;;5290441;28;20188;-69
2021/01/09 07:27:12;;;;;;;38.07;16.30;;;0.20;99.90;;;;;;5290537;28;20198;-73
2021/01/09 07:29:44;;;;;;;36.40;15.73;;;0.20;99.90;;;;;;5291003;28;20194;-73
2021/01/09 07:32:35;;;;;;;35.83;16.30;;;0.20;99.90;;;;;;5291232;28;20545;-73
2021/01/09 07:39:05;;;;;;;35.40;16.03;;;0.20;99.90;;;;;;5291531;28;20543;-72
2021/01/09 07:41:38;;;;;;;36.87;15.90;;;0.30;99.90;;;;;;5292276;28;20252;-76
2021/01/09 07:44:14;;;;;;;32.77;15.87;;;0.30;99.90;;;;;;5291223;28;20195;-73
2021/01/09 07:46:56;;;;;;;36.10;15.73;;;0.30;99.90;;;;;;5291014;28;20664;-74
2021/01/09 07:49:30;;;;;;;40.33;16.83;;;0.30;99.90;;;;;;5290568;28;20199;-72
2021/01/09 07:52:02;;;;;;;35.50;15.43;;;0.30;99.90;;;;;;5290693;28;20677;-73
2021/01/09 07:54:44;;;;;;;37.50;17.37;;;0.40;99.90;;;;;;5290837;28;20192;-72
2021/01/09 07:57:18;;;;;;;39.90;16.60;;;0.40;99.90;;;;;;5290989;28;20533;-73
2021/01/09 08:00:00;;;;;;;39.57;16.63;;;0.40;99.90;;;;;;5290464;28;20224;-75
2021/01/09 08:02:33;;;;;;;36.83;15.80;;;0.50;99.90;;;;;;5290691;28;20535;-73
2021/01/09 08:05:12;;;;;;;36.73;17.20;;;0.50;99.90;;;;;;5294025;28;20283;-73
2021/01/09 08:07:46;;;;;;;37.73;16.97;;;0.50;99.90;;;;;;5277091;28;20529;-71
2021/01/09 08:10:20;;;;;;;37.80;16.80;;;0.50;99.90;;;;;;5292980;28;20582;-79
2021/01/09 08:12:57;;;;;;;33.37;15.87;;;0.50;99.90;;;;;;5290330;28;20192;-78
2021/01/09 08:15:30;;;;;;;41.33;16.93;;;0.50;99.90;;;;;;5290586;28;20231;-76
2021/01/09 08:22:03;;;;;;;34.73;16.70;;;0.60;99.90;;;;;;5290670;28;20194;-76
2021/01/09 08:24:36;;;;;;;38.63;16.27;;;0.60;99.90;;;;;;5290757;28;20199;-80
2021/01/09 08:27:08;;;;;;;35.87;16.67;;;0.60;99.90;;;;;;5272310;28;20188;-76
2021/01/09 08:29:40;;;;;;;32.03;15.80;;;0.60;99.90;;;;;;5288876;28;20663;-75
2021/01/09 08:32:13;;;;;;;36.47;14.53;;;0.60;99.90;;;;;;5290586;28;20270;-77
2021/01/09 08:38:41;;;;;;;31.70;14.53;;;0.70;99.90;;;;;;5290297;28;20179;-74
2021/01/09 08:41:12;;;;;;;31.97;15.33;;;0.70;99.90;;;;;;5290089;28;20195;-73
2021/01/09 08:43:43;;;;;;;33.33;15.97;;;0.70;99.90;;;;;;5289451;28;20194;-72
2021/01/09 08:46:15;;;;;;;35.93;16.17;;;0.70;99.90;;;;;;5289888;28;20317;-73
2021/01/09 08:48:47;;;;;;;37.70;17.53;;;0.80;99.90;;;;;;5290122;28;20191;-75
2021/01/09 08:51:24;;;;;;;37.40;16.37;;;0.80;99.90;;;;;;5288958;28;20258;-75
2021/01/09 08:54:05;;;;;;;37.10;16.83;;;0.80;99.90;;;;;;5291139;28;20184;-71
2021/01/09 08:56:37;;;;;;;37.63;16.27;;;0.80;99.90;;;;;;5288254;28;20199;-75
2021/01/09 08:59:12;;;;;;;35.70;16.43;;;0.80;99.90;;;;;;5289767;28;20595;-74
2021/01/09 09:01:46;;;;;;;30.37;15.90;;;0.90;99.90;;;;;;5289231;27;20285;-69
2021/01/09 09:04:22;;;;;;;35.57;15.20;;;0.90;99.90;;;;;;5292481;28;20228;-72
2021/01/09 09:06:59;;;;;;;33.10;14.60;;;0.90;99.90;;;;;;5293400;28;20634;-81
2021/01/09 09:09:39;;;;;;;31.23;14.83;;;0.90;99.90;;;;;;5294459;28;20200;-83
2021/01/09 09:12:10;;;;;;;32.23;15.97;;;0.80;99.90;;;;;;5275169;28;20199;-77
2021/01/09 09:14:56;;;;;;;31.13;15.50;;;0.80;99.90;;;;;;5296500;28;20195;-84
2021/01/09 09:17:28;;;;;;;33.47;16.20;;;0.80;99.90;;;;;;5296029;28;20191;-75
2021/01/09 09:19:59;;;;;;;32.07;15.30;;;0.80;99.90;;;;;;5295957;28;20207;-79
2021/01/09 09:22:31;;;;;;;29.83;15.63;;;0.90;99.90;;;;;;5294610;28;20195;-78
2021/01/09 09:25:03;;;;;;;28.93;14.77;;;0.90;99.90;;;;;;5280948;28;20267;-70
2021/01/09 09:27:37;;;;;;;35.83;16.10;;;0.90;99.90;;;;;;5184643;28;20460;-71
2021/01/09 09:30:17;;;;;;;39.13;15.67;;;0.90;99.90;;;;;;5267309;28;20203;-75
2021/01/09 09:32:54;;;;;;;34.13;15.20;;;0.90;99.90;;;;;;5179016;28;20405;-72
2021/01/09 09:35:34;;;;;;;46.00;17.60;;;0.90;99.90;;;;;;5225973;28;20230;-73
2021/01/09 09:38:25;;;;;;;35.83;16.47;;;0.90;99.90;;;;;;5266196;28;20278;-74
2021/01/09 09:41:09;;;;;;;38.63;17.27;;;1.00;99.90;;;;;;5230925;28;20306;-71
2021/01/09 09:44:07;;;;;;;36.17;17.77;;;1.00;99.90;;;;;;5173102;28;20246;-74
2021/01/09 09:46:42;;;;;;;43.00;19.17;;;1.00;99.90;;;;;;5186869;28;20676;-71
2021/01/09 09:53:23;;;;;;;37.57;17.13;;;1.00;99.90;;;;;;5186054;28;20317;-72
2021/01/09 09:56:10;;;;;;;40.20;18.37;;;1.10;99.90;;;;;;5186677;28;20213;-75
2021/01/09 09:58:44;;;;;;;44.57;19.67;;;1.10;99.90;;;;;;5186680;28;20195;-72
2021/01/09 10:01:17;;;;;;;37.77;19.17;;;1.20;99.90;;;;;;5189149;28;20200;-76
2021/01/09 10:07:34;;;;;;;39.37;19.93;;;1.20;99.90;;;;;;5186490;28;20222;-71
2021/01/09 10:10:16;;;;;;;34.13;17.33;;;1.30;99.90;;;;;;5186384;28;20561;-72
2021/01/09 10:12:58;;;;;;;35.23;16.83;;;1.30;99.90;;;;;;5185896;28;20584;-73
2021/01/09 10:15:29;;;;;;;34.83;16.00;;;1.30;99.90;;;;;;5186917;28;20205;-71
2021/01/09 10:18:01;;;;;;;33.50;16.40;;;1.40;99.90;;;;;;5186461;28;20230;-73
2021/01/09 10:24:19;;;;;;;31.07;16.50;;;1.50;99.90;;;;;;5182125;28;20171;-75
2021/01/09 10:26:51;;;;;;;32.07;15.40;;;1.50;99.90;;;;;;5186938;28;20195;-72
2021/01/09 10:29:24;;;;;;;26.10;14.37;;;1.60;99.90;;;;;;5184640;28;20205;-72
2021/01/09 10:32:01;;;;;;;28.20;14.30;;;1.70;99.90;;;;;;5184920;28;20203;-70
2021/01/09 10:34:33;;;;;;;26.37;13.63;;;1.70;99.90;;;;;;5184619;28;20187;-76
2021/01/09 10:37:05;;;;;;;29.67;14.07;;;1.70;99.90;;;;;;5186126;28;20264;-71
2021/01/09 10:39:36;;;;;;;26.43;14.37;;;1.70;99.90;;;;;;5185701;28;20233;-73
2021/01/09 10:42:08;;;;;;;24.13;13.83;;;1.70;99.90;;;;;;5185536;28;20712;-71
2021/01/09 10:44:40;;;;;;;31.83;16.13;;;1.70;99.90;;;;;;5185781;28;20199;-75
2021/01/09 10:47:11;;;;;;;31.73;15.33;;;1.70;99.90;;;;;;5185767;28;20199;-76
2021/01/09 10:49:43;;;;;;;29.93;15.70;;;1.70;99.90;;;;;;5186681;28;20277;-70
2021/01/09 10:52:14;;;;;;;32.43;16.27;;;1.70;99.90;;;;;;5187882;28;20774;-70
2021/01/09 10:54:49;;;;;;;28.37;14.50;;;1.70;99.90;;;;;;5270993;28;20248;-72
2021/01/09 10:57:20;;;;;;;34.27;15.70;;;1.80;99.90;;;;;;5270528;28;20270;-71
2021/01/09 10:59:52;;;;;;;28.93;14.73;;;1.80;99.90;;;;;;5270468;28;20220;-72
2021/01/09 11:02:24;;;;;;;28.90;14.30;;;1.70;99.90;;;;;;5270400;28;20647;-77
2021/01/09 11:04:56;;;;;;;30.93;15.20;;;1.80;99.90;;;;;;5269489;28;20192;-69
2021/01/09 11:07:28;;;;;;;28.23;15.03;;;1.70;99.90;;;;;;5269208;28;20192;-71
2021/01/09 11:09:59;;;;;;;27.27;14.70;;;1.70;99.90;;;;;;5271351;28;20203;-71
2021/01/09 11:12:30;;;;;;;30.27;16.00;;;1.70;99.90;;;;;;5270868;28;20192;-72
2021/01/09 11:15:03;;;;;;;27.30;14.50;;;1.60;99.90;;;;;;5269780;28;20324;-72
2021/01/09 11:17:34;;;;;;;30.50;15.93;;;1.60;99.90;;;;;;5272353;28;20699;-69
2021/01/09 11:20:09;;;;;;;28.70;15.90;;;1.60;99.90;;;;;;5269238;28;20258;-76
2021/01/09 11:22:44;;;;;;;29.13;14.70;;;1.60;99.90;;;;;;5271207;28;20192;-80
2021/01/09 11:25:15;;;;;;;30.90;15.90;;;1.70;99.90;;;;;;5270024;28;20647;-74
2021/01/09 11:27:49;;;;;;;28.53;15.57;;;1.70;99.90;;;;;;5269989;28;20212;-71
2021/01/09 11:30:21;;;;;;;27.57;14.60;;;1.70;99.90;;;;;;5271447;28;20193;-73
2021/01/09 11:32:52;;;;;;;28.53;15.00;;;1.70;99.90;;;;;;5271156;28;20631;-71
2021/01/09 11:35:24;;;;;;;33.20;16.73;;;1.70;99.90;;;;;;5269535;28;20192;-73
2021/01/09 11:37:59;;;;;;;28.27;15.60;;;1.60;99.90;;;;;;5270271;28;20605;-75
2021/01/09 11:40:31;;;;;;;33.57;17.40;;;1.70;99.90;;;;;;5269577;28;20219;-75
2021/01/09 11:43:02;;;;;;;29.63;15.60;;;1.70;99.90;;;;;;5269347;28;20199;-75
2021/01/09 11:45:35;;;;;;;32.10;17.33;;;1.70;99.90;;;;;;5269404;28;20199;-70
2021/01/09 11:48:06;;;;;;;31.00;16.43;;;1.70;99.90;;;;;;5269750;28;20200;-72
2021/01/09 11:50:42;;;;;;;29.23;15.97;;;1.60;99.90;;;;;;5269938;28;20639;-72
2021/01/09 11:53:23;;;;;;;30.30;16.43;;;1.70;99.90;;;;;;5289376;28;20258;-71
2021/01/09 11:55:57;;;;;;;31.03;15.90;;;1.70;99.90;;;;;;5291156;28;20600;-75
2021/01/09 11:58:30;;;;;;;27.73;15.43;;;1.70;99.90;;;;;;5291836;28;20183;-74
2021/01/09 12:01:01;;;;;;;35.70;18.27;;;1.80;99.90;;;;;;5289961;28;20218;-73
2021/01/09 12:03:35;;;;;;;34.40;16.93;;;1.80;99.90;;;;;;5272549;28;20520;-75
2021/01/09 12:06:07;;;;;;;33.70;17.33;;;1.80;99.90;;;;;;5291563;28;20191;-70
2021/01/09 12:08:40;;;;;;;31.13;16.83;;;1.80;99.90;;;;;;5286231;28;20196;-75
2021/01/09 12:11:18;;;;;;;32.53;16.70;;;1.80;99.90;;;;;;5291803;28;20733;-73
2021/01/09 12:13:50;;;;;;;32.17;16.33;;;1.70;99.90;;;;;;5294708;28;20555;-70
2021/01/09 12:16:32;;;;;;;27.43;15.00;;;1.70;99.90;;;;;;5291884;28;20192;-74
2021/01/09 12:19:05;;;;;;;29.50;15.83;;;1.70;99.90;;;;;;5293499;28;20188;-78
2021/01/09 12:21:37;;;;;;;29.43;15.43;;;1.70;99.90;;;;;;5294447;28;20203;-78
2021/01/09 12:24:09;;;;;;;30.90;16.30;;;1.70;99.90;;;;;;5295340;28;20184;-74
2021/01/09 12:26:42;;;;;;;28.80;16.13;;;1.70;99.90;;;;;;5292227;28;20191;-74
2021/01/09 12:29:13;;;;;;;31.27;16.30;;;1.70;99.90;;;;;;5290900;28;20192;-75
2021/01/09 12:31:44;;;;;;;31.87;16.27;;;1.60;99.90;;;;;;5272394;28;20202;-74
2021/01/09 12:34:18;;;;;;;28.77;16.47;;;1.60;99.90;;;;;;5289588;28;20196;-73
2021/01/09 12:36:52;;;;;;;29.33;15.67;;;1.60;99.90;;;;;;5204255;28;20202;-71
2021/01/09 12:39:24;;;;;;;31.00;17.47;;;1.60;99.90;;;;;;5207825;28;20241;-76
2021/01/09 12:41:55;;;;;;;32.03;16.37;;;1.60;99.90;;;;;;5208194;28;20206;-76
2021/01/09 12:44:27;;;;;;;28.63;16.20;;;1.60;99.90;;;;;;5207832;28;20210;-76
2021/01/09 12:46:59;;;;;;;38.13;16.90;;;1.60;99.90;;;;;;5208452;28;20198;-73
2021/01/09 12:53:16;;;;;;;29.10;17.43;;;1.60;99.90;;;;;;5209038;28;20717;-72
2021/01/09 12:55:47;;;;;;;34.07;16.43;;;1.60;99.90;;;;;;5263783;28;20200;-71
2021/01/09 12:58:20;;;;;;;32.83;17.43;;;1.60;99.90;;;;;;5273833;28;20649;-73
2021/01/09 13:00:52;;;;;;;31.73;16.87;;;1.60;99.90;;;;;;5273113;28;20223;-73
2021/01/09 13:03:24;;;;;;;31.60;17.10;;;1.50;99.90;;;;;;5273874;28;20592;-77
2021/01/09 13:09:41;;;;;;;28.53;15.73;;;1.50;99.90;;;;;;5273459;28;20635;-75
2021/01/09 13:12:13;;;;;;;32.27;15.97;;;1.40;99.90;;;;;;5273772;28;20558;-78
2021/01/09 13:14:44;;;;;;;28.93;16.47;;;1.40;99.90;;;;;;5271923;28;20185;-81
2021/01/09 13:17:16;;;;;;;31.37;16.80;;;1.30;99.90;;;;;;5273546;28;20621;-78
2021/01/09 13:19:48;;;;;;;34.90;16.97;;;1.30;99.90;;;;;;5274082;28;20496;-74
2021/01/09 13:22:20;;;;;;;32.03;15.93;;;1.30;99.90;;;;;;5272669;28;20203;-77
2021/01/09 13:24:51;;;;;;;29.87;15.33;;;1.30;99.90;;;;;;5273446;28;20188;-80
2021/01/09 13:27:23;;;;;;;33.23;16.50;;;1.20;99.90;;;;;;5276436;28;20611;-77
2021/01/09 13:29:55;;;;;;;30.90;16.63;;;1.20;99.90;;;;;;5274864;28;20216;-75
2021/01/09 13:32:27;;;;;;;32.23;17.40;;;1.10;99.90;;;;;;5278612;28;20196;-75
2021/01/09 13:34:59;;;;;;;38.37;18.90;;;1.10;99.90;;;;;;5273946;28;20228;-80
2021/01/09 13:37:30;;;;;;;34.53;17.80;;;1.10;99.90;;;;;;5272863;28;20547;-74
2021/01/09 13:40:02;;;;;;;36.50;16.73;;;1.10;99.90;;;;;;5275889;28;20212;-73
2021/01/09 13:42:34;;;;;;;35.72;20.83;;;1.10;99.90;;;;;;5272746;28;20422;-77
2021/01/09 13:45:06;;;;;;;36.10;17.13;;;1.10;99.90;;;;;;5271537;28;20197;-73
2021/01/09 13:47:38;;;;;;;35.97;18.30;;;1.10;99.90;;;;;;5271569;28;20200;-73
2021/01/09 13:50:09;;;;;;;33.97;17.57;;;1.10;99.90;;;;;;5271121;28;20271;-75
2021/01/09 13:52:45;;;;;;;30.60;17.07;;;1.10;99.90;;;;;;5281398;28;20325;-75